sensor_id;sensor_type;location;lat;lon;timestamp;P1;durP1;ratioP1;P2;durP2;ratioP2
79261;SDS011;68699;48.220;16.358;2023-06-10T00:01:51;4.93;;;4.50;;
79261;SDS011;68699;48.220;16.358;2023-06-10T00:04:20;5.40;;;4.90;;
79261;SDS011;68699;48.220;16.358;2023-06-10T00:06:47;5.40;;;4.87;;
79261;SDS011;68699;48.220;16.358;2023-06-10T00:09:14;5.33;;;4.93;;
79261;SDS011;68699;48.220;16.358;2023-06-10T00:11:41;5.23;;;4.73;;
79261;SDS011;68699;48.220;16.358;2023-06-10T00:14:08;5.70;;;5.10;;
79261;SDS011;68699;48.220;16.358;2023-06-10T00:16:34;4.90;;;4.50;;
79261;SDS011;68699;48.220;16.358;2023-06-10T00:19:01;5.60;;;4.80;;
79261;SDS011;68699;48.220;16.358;2023-06-10T00:21:28;6.17;;;5.20;;
79261;SDS011;68699;48.220;16.358;2023-06-10T00:23:54;5.80;;;5.30;;
79261;SDS011;68699;48.220;16.358;2023-06-10T00:26:21;5.50;;;5.00;;
79261;SDS011;68699;48.220;16.358;2023-06-10T00:28:47;6.27;;;5.20;;
79261;SDS011;68699;48.220;16.358;2023-06-10T00:31:13;5.60;;;5.10;;
79261;SDS011;68699;48.220;16.358;2023-06-10T00:33:39;5.30;;;4.80;;
79261;SDS011;68699;48.220;16.358;2023-06-10T00:36:06;5.03;;;4.53;;
79261;SDS011;68699;48.220;16.358;2023-06-10T00:38:32;5.43;;;5.03;;
79261;SDS011;68699;48.220;16.358;2023-06-10T00:40:58;6.00;;;5.37;;
79261;SDS011;68699;48.220;16.358;2023-06-10T00:43:25;5.70;;;5.20;;
79261;SDS011;68699;48.220;16.358;2023-06-10T00:45:51;5.67;;;5.17;;
79261;SDS011;68699;48.220;16.358;2023-06-10T00:48:17;5.90;;;5.40;;
79261;SDS011;68699;48.220;16.358;2023-06-10T00:50:45;5.93;;;5.43;;
79261;SDS011;68699;48.220;16.358;2023-06-10T00:53:11;7.50;;;5.50;;
79261;SDS011;68699;48.220;16.358;2023-06-10T00:55:38;5.73;;;5.23;;
79261;SDS011;68699;48.220;16.358;2023-06-10T00:58:04;5.27;;;4.80;;
79261;SDS011;68699;48.220;16.358;2023-06-10T01:00:31;6.40;;;5.80;;
79261;SDS011;68699;48.220;16.358;2023-06-10T01:02:57;5.90;;;4.97;;
79261;SDS011;68699;48.220;16.358;2023-06-10T01:05:23;5.67;;;5.00;;
79261;SDS011;68699;48.220;16.358;2023-06-10T01:07:52;6.37;;;5.87;;
79261;SDS011;68699;48.220;16.358;2023-06-10T01:10:29;6.07;;;5.57;;
79261;SDS011;68699;48.220;16.358;2023-06-10T01:15:24;5.80;;;5.30;;
79261;SDS011;68699;48.220;16.358;2023-06-10T01:20:43;6.63;;;6.13;;
79261;SDS011;68699;48.220;16.358;2023-06-10T01:23:11;6.63;;;6.07;;
79261;SDS011;68699;48.220;16.358;2023-06-10T01:25:38;6.80;;;6.20;;
79261;SDS011;68699;48.220;16.358;2023-06-10T01:33:10;6.33;;;5.73;;
79261;SDS011;68699;48.220;16.358;2023-06-10T01:35:37;8.40;;;6.57;;
79261;SDS011;68699;48.220;16.358;2023-06-10T01:38:04;6.97;;;6.27;;
79261;SDS011;68699;48.220;16.358;2023-06-10T01:40:31;6.20;;;5.70;;
79261;SDS011;68699;48.220;16.358;2023-06-10T01:42:58;7.23;;;6.53;;
79261;SDS011;68699;48.220;16.358;2023-06-10T01:45:24;7.40;;;6.70;;
79261;SDS011;68699;48.220;16.358;2023-06-10T01:47:50;7.60;;;6.90;;
79261;SDS011;68699;48.220;16.358;2023-06-10T01:50:16;8.07;;;7.47;;
79261;SDS011;68699;48.220;16.358;2023-06-10T01:52:42;8.33;;;7.63;;
79261;SDS011;68699;48.220;16.358;2023-06-10T01:55:08;8.40;;;7.70;;
79261;SDS011;68699;48.220;16.358;2023-06-10T01:57:35;8.33;;;7.70;;
79261;SDS011;68699;48.220;16.358;2023-06-10T02:00:01;8.47;;;7.77;;
79261;SDS011;68699;48.220;16.358;2023-06-10T02:02:28;9.33;;;8.53;;
79261;SDS011;68699;48.220;16.358;2023-06-10T02:04:54;8.87;;;8.17;;
79261;SDS011;68699;48.220;16.358;2023-06-10T02:07:20;9.17;;;8.27;;
79261;SDS011;68699;48.220;16.358;2023-06-10T02:09:46;9.40;;;8.60;;
79261;SDS011;68699;48.220;16.358;2023-06-10T02:12:13;9.73;;;8.90;;
79261;SDS011;68699;48.220;16.358;2023-06-10T02:14:39;10.60;;;9.50;;
79261;SDS011;68699;48.220;16.358;2023-06-10T02:17:05;10.60;;;9.60;;
79261;SDS011;68699;48.220;16.358;2023-06-10T02:19:32;10.20;;;9.30;;
79261;SDS011;68699;48.220;16.358;2023-06-10T02:22:01;11.10;;;10.20;;
79261;SDS011;68699;48.220;16.358;2023-06-10T02:24:27;11.63;;;10.73;;
79261;SDS011;68699;48.220;16.358;2023-06-10T02:27:14;12.07;;;10.93;;
79261;SDS011;68699;48.220;16.358;2023-06-10T02:29:40;10.97;;;10.00;;
79261;SDS011;68699;48.220;16.358;2023-06-10T02:32:07;12.03;;;10.67;;
79261;SDS011;68699;48.220;16.358;2023-06-10T02:34:33;11.13;;;10.20;;
79261;SDS011;68699;48.220;16.358;2023-06-10T02:36:59;10.03;;;9.23;;
79261;SDS011;68699;48.220;16.358;2023-06-10T02:39:26;11.17;;;10.17;;
79261;SDS011;68699;48.220;16.358;2023-06-10T02:41:52;11.00;;;10.10;;
79261;SDS011;68699;48.220;16.358;2023-06-10T02:44:18;11.07;;;10.17;;
79261;SDS011;68699;48.220;16.358;2023-06-10T02:46:45;10.77;;;9.87;;
79261;SDS011;68699;48.220;16.358;2023-06-10T02:49:11;11.90;;;10.80;;
79261;SDS011;68699;48.220;16.358;2023-06-10T02:51:38;11.10;;;10.10;;
79261;SDS011;68699;48.220;16.358;2023-06-10T02:54:04;10.63;;;9.73;;
79261;SDS011;68699;48.220;16.358;2023-06-10T02:56:31;11.20;;;10.10;;
79261;SDS011;68699;48.220;16.358;2023-06-10T02:58:58;10.97;;;10.07;;
79261;SDS011;68699;48.220;16.358;2023-06-10T03:01:24;9.33;;;8.53;;
79261;SDS011;68699;48.220;16.358;2023-06-10T03:03:50;10.17;;;9.17;;
79261;SDS011;68699;48.220;16.358;2023-06-10T03:06:17;9.70;;;8.90;;
79261;SDS011;68699;48.220;16.358;2023-06-10T03:08:44;11.40;;;10.20;;
79261;SDS011;68699;48.220;16.358;2023-06-10T03:11:13;9.83;;;8.93;;
79261;SDS011;68699;48.220;16.358;2023-06-10T03:13:40;11.43;;;10.53;;
79261;SDS011;68699;48.220;16.358;2023-06-10T03:16:06;11.40;;;10.50;;
79261;SDS011;68699;48.220;16.358;2023-06-10T03:18:32;10.37;;;9.47;;
79261;SDS011;68699;48.220;16.358;2023-06-10T03:20:59;10.23;;;9.33;;
79261;SDS011;68699;48.220;16.358;2023-06-10T03:23:25;10.30;;;9.40;;
79261;SDS011;68699;48.220;16.358;2023-06-10T03:25:52;10.80;;;9.80;;
79261;SDS011;68699;48.220;16.358;2023-06-10T03:28:20;10.40;;;9.40;;
79261;SDS011;68699;48.220;16.358;2023-06-10T03:30:47;11.30;;;10.40;;
79261;SDS011;68699;48.220;16.358;2023-06-10T03:33:13;10.03;;;9.23;;
79261;SDS011;68699;48.220;16.358;2023-06-10T03:35:40;10.23;;;9.33;;
79261;SDS011;68699;48.220;16.358;2023-06-10T03:38:06;11.17;;;10.20;;
79261;SDS011;68699;48.220;16.358;2023-06-10T03:40:32;11.10;;;9.97;;
79261;SDS011;68699;48.220;16.358;2023-06-10T03:43:00;10.43;;;9.53;;
79261;SDS011;68699;48.220;16.358;2023-06-10T03:45:26;11.23;;;10.23;;
79261;SDS011;68699;48.220;16.358;2023-06-10T03:47:53;10.70;;;9.80;;
79261;SDS011;68699;48.220;16.358;2023-06-10T03:50:22;10.93;;;9.93;;
79261;SDS011;68699;48.220;16.358;2023-06-10T03:52:49;11.93;;;10.83;;
79261;SDS011;68699;48.220;16.358;2023-06-10T03:55:16;13.30;;;12.20;;
79261;SDS011;68699;48.220;16.358;2023-06-10T03:57:42;12.40;;;11.30;;
79261;SDS011;68699;48.220;16.358;2023-06-10T04:00:09;12.93;;;11.57;;
79261;SDS011;68699;48.220;16.358;2023-06-10T04:02:36;13.57;;;12.27;;
79261;SDS011;68699;48.220;16.358;2023-06-10T04:05:07;14.93;;;13.50;;
79261;SDS011;68699;48.220;16.358;2023-06-10T04:07:33;13.37;;;12.17;;
79261;SDS011;68699;48.220;16.358;2023-06-10T04:09:59;13.40;;;12.27;;
79261;SDS011;68699;48.220;16.358;2023-06-10T04:12:25;12.47;;;11.37;;
79261;SDS011;68699;48.220;16.358;2023-06-10T04:14:51;14.50;;;13.03;;
79261;SDS011;68699;48.220;16.358;2023-06-10T04:17:18;14.90;;;13.57;;
79261;SDS011;68699;48.220;16.358;2023-06-10T04:19:44;15.00;;;13.63;;
79261;SDS011;68699;48.220;16.358;2023-06-10T04:22:10;13.53;;;12.23;;
79261;SDS011;68699;48.220;16.358;2023-06-10T04:24:39;13.57;;;12.37;;
79261;SDS011;68699;48.220;16.358;2023-06-10T04:27:06;13.43;;;12.23;;
79261;SDS011;68699;48.220;16.358;2023-06-10T04:29:32;12.90;;;11.80;;
79261;SDS011;68699;48.220;16.358;2023-06-10T04:31:59;12.93;;;11.77;;
79261;SDS011;68699;48.220;16.358;2023-06-10T04:34:26;12.13;;;11.03;;
79261;SDS011;68699;48.220;16.358;2023-06-10T04:36:53;13.53;;;12.33;;
79261;SDS011;68699;48.220;16.358;2023-06-10T04:39:19;13.00;;;11.80;;
79261;SDS011;68699;48.220;16.358;2023-06-10T04:41:45;14.00;;;12.60;;
79261;SDS011;68699;48.220;16.358;2023-06-10T04:44:12;15.23;;;13.83;;
79261;SDS011;68699;48.220;16.358;2023-06-10T04:46:38;13.63;;;12.47;;
79261;SDS011;68699;48.220;16.358;2023-06-10T04:49:05;15.33;;;13.83;;
79261;SDS011;68699;48.220;16.358;2023-06-10T04:51:31;15.73;;;14.33;;
79261;SDS011;68699;48.220;16.358;2023-06-10T04:53:57;15.37;;;13.87;;
79261;SDS011;68699;48.220;16.358;2023-06-10T04:56:27;14.60;;;13.10;;
79261;SDS011;68699;48.220;16.358;2023-06-10T04:58:54;13.63;;;12.43;;
79261;SDS011;68699;48.220;16.358;2023-06-10T05:01:23;15.40;;;13.90;;
79261;SDS011;68699;48.220;16.358;2023-06-10T05:03:50;14.57;;;13.17;;
79261;SDS011;68699;48.220;16.358;2023-06-10T05:06:16;14.13;;;12.83;;
79261;SDS011;68699;48.220;16.358;2023-06-10T05:08:42;15.07;;;13.50;;
79261;SDS011;68699;48.220;16.358;2023-06-10T05:11:08;14.47;;;12.93;;
79261;SDS011;68699;48.220;16.358;2023-06-10T05:13:35;14.97;;;13.37;;
79261;SDS011;68699;48.220;16.358;2023-06-10T05:16:01;14.57;;;13.30;;
79261;SDS011;68699;48.220;16.358;2023-06-10T05:18:27;14.10;;;12.83;;
79261;SDS011;68699;48.220;16.358;2023-06-10T05:20:53;14.40;;;13.10;;
79261;SDS011;68699;48.220;16.358;2023-06-10T05:23:20;15.80;;;14.37;;
79261;SDS011;68699;48.220;16.358;2023-06-10T05:25:46;15.07;;;13.57;;
79261;SDS011;68699;48.220;16.358;2023-06-10T05:28:13;17.33;;;15.60;;
79261;SDS011;68699;48.220;16.358;2023-06-10T05:30:39;16.07;;;14.53;;
79261;SDS011;68699;48.220;16.358;2023-06-10T05:33:05;16.97;;;15.37;;
79261;SDS011;68699;48.220;16.358;2023-06-10T05:35:31;16.60;;;15.00;;
79261;SDS011;68699;48.220;16.358;2023-06-10T05:37:58;17.47;;;15.87;;
79261;SDS011;68699;48.220;16.358;2023-06-10T05:40:24;16.73;;;15.23;;
79261;SDS011;68699;48.220;16.358;2023-06-10T05:42:50;17.13;;;15.53;;
79261;SDS011;68699;48.220;16.358;2023-06-10T05:45:16;17.90;;;16.17;;
79261;SDS011;68699;48.220;16.358;2023-06-10T05:47:42;19.27;;;17.43;;
79261;SDS011;68699;48.220;16.358;2023-06-10T05:50:09;20.20;;;18.40;;
79261;SDS011;68699;48.220;16.358;2023-06-10T05:52:35;17.43;;;15.73;;
79261;SDS011;68699;48.220;16.358;2023-06-10T05:55:02;18.97;;;17.03;;
79261;SDS011;68699;48.220;16.358;2023-06-10T05:57:28;17.23;;;15.63;;
79261;SDS011;68699;48.220;16.358;2023-06-10T05:59:54;18.83;;;16.93;;
79261;SDS011;68699;48.220;16.358;2023-06-10T06:02:20;20.70;;;18.70;;
79261;SDS011;68699;48.220;16.358;2023-06-10T06:04:47;18.80;;;16.90;;
79261;SDS011;68699;48.220;16.358;2023-06-10T06:07:13;22.53;;;20.07;;
79261;SDS011;68699;48.220;16.358;2023-06-10T06:09:39;21.73;;;19.53;;
79261;SDS011;68699;48.220;16.358;2023-06-10T06:12:06;22.13;;;19.83;;
79261;SDS011;68699;48.220;16.358;2023-06-10T06:14:38;22.47;;;20.17;;
79261;SDS011;68699;48.220;16.358;2023-06-10T06:17:05;24.40;;;21.50;;
79261;SDS011;68699;48.220;16.358;2023-06-10T06:19:32;23.13;;;20.67;;
79261;SDS011;68699;48.220;16.358;2023-06-10T06:21:58;26.50;;;21.97;;
79261;SDS011;68699;48.220;16.358;2023-06-10T06:24:24;24.17;;;21.67;;
79261;SDS011;68699;48.220;16.358;2023-06-10T06:26:50;23.03;;;20.67;;
79261;SDS011;68699;48.220;16.358;2023-06-10T06:29:17;22.20;;;19.70;;
79261;SDS011;68699;48.220;16.358;2023-06-10T06:31:43;23.37;;;20.00;;
79261;SDS011;68699;48.220;16.358;2023-06-10T06:34:09;21.50;;;19.30;;
79261;SDS011;68699;48.220;16.358;2023-06-10T06:36:35;21.07;;;18.90;;
79261;SDS011;68699;48.220;16.358;2023-06-10T06:39:02;19.70;;;17.83;;
79261;SDS011;68699;48.220;16.358;2023-06-10T06:41:28;19.27;;;17.27;;
79261;SDS011;68699;48.220;16.358;2023-06-10T06:43:57;20.97;;;18.87;;
79261;SDS011;68699;48.220;16.358;2023-06-10T06:46:24;17.20;;;15.60;;
79261;SDS011;68699;48.220;16.358;2023-06-10T06:48:50;19.93;;;17.93;;
79261;SDS011;68699;48.220;16.358;2023-06-10T06:51:16;19.07;;;17.27;;
79261;SDS011;68699;48.220;16.358;2023-06-10T06:53:42;21.03;;;18.93;;
79261;SDS011;68699;48.220;16.358;2023-06-10T06:56:11;21.63;;;19.43;;
79261;SDS011;68699;48.220;16.358;2023-06-10T06:58:37;20.77;;;18.77;;
79261;SDS011;68699;48.220;16.358;2023-06-10T07:01:03;18.83;;;17.13;;
79261;SDS011;68699;48.220;16.358;2023-06-10T07:03:29;18.97;;;17.23;;
79261;SDS011;68699;48.220;16.358;2023-06-10T07:05:56;19.47;;;17.67;;
79261;SDS011;68699;48.220;16.358;2023-06-10T07:08:22;19.53;;;17.73;;
79261;SDS011;68699;48.220;16.358;2023-06-10T07:10:48;22.00;;;18.97;;
79261;SDS011;68699;48.220;16.358;2023-06-10T07:13:14;20.67;;;18.67;;
79261;SDS011;68699;48.220;16.358;2023-06-10T07:15:40;19.73;;;17.73;;
79261;SDS011;68699;48.220;16.358;2023-06-10T07:18:07;20.77;;;18.73;;
79261;SDS011;68699;48.220;16.358;2023-06-10T07:20:33;19.53;;;17.73;;
79261;SDS011;68699;48.220;16.358;2023-06-10T07:22:59;19.47;;;17.67;;
79261;SDS011;68699;48.220;16.358;2023-06-10T07:25:26;18.43;;;16.73;;
79261;SDS011;68699;48.220;16.358;2023-06-10T07:27:52;18.90;;;16.90;;
79261;SDS011;68699;48.220;16.358;2023-06-10T07:30:18;18.40;;;16.63;;
79261;SDS011;68699;48.220;16.358;2023-06-10T07:32:44;17.30;;;15.60;;
79261;SDS011;68699;48.220;16.358;2023-06-10T07:35:10;20.27;;;18.27;;
79261;SDS011;68699;48.220;16.358;2023-06-10T07:37:37;18.83;;;17.13;;
79261;SDS011;68699;48.220;16.358;2023-06-10T07:40:03;19.13;;;17.33;;
79261;SDS011;68699;48.220;16.358;2023-06-10T07:42:31;18.00;;;16.30;;
79261;SDS011;68699;48.220;16.358;2023-06-10T07:44:57;18.93;;;17.13;;
79261;SDS011;68699;48.220;16.358;2023-06-10T07:47:24;21.37;;;18.63;;
79261;SDS011;68699;48.220;16.358;2023-06-10T07:49:50;15.97;;;14.47;;
79261;SDS011;68699;48.220;16.358;2023-06-10T07:52:16;16.90;;;15.30;;
79261;SDS011;68699;48.220;16.358;2023-06-10T07:54:42;14.50;;;13.20;;
79261;SDS011;68699;48.220;16.358;2023-06-10T07:57:08;14.57;;;13.27;;
79261;SDS011;68699;48.220;16.358;2023-06-10T07:59:34;18.97;;;17.27;;
79261;SDS011;68699;48.220;16.358;2023-06-10T08:02:01;17.33;;;15.73;;
79261;SDS011;68699;48.220;16.358;2023-06-10T08:04:27;18.03;;;16.40;;
79261;SDS011;68699;48.220;16.358;2023-06-10T08:06:53;18.43;;;16.77;;
79261;SDS011;68699;48.220;16.358;2023-06-10T08:09:19;19.33;;;17.57;;
79261;SDS011;68699;48.220;16.358;2023-06-10T08:11:48;17.37;;;15.63;;
79261;SDS011;68699;48.220;16.358;2023-06-10T08:14:14;17.40;;;15.80;;
79261;SDS011;68699;48.220;16.358;2023-06-10T08:16:40;16.40;;;14.80;;
79261;SDS011;68699;48.220;16.358;2023-06-10T08:19:07;16.40;;;15.00;;
79261;SDS011;68699;48.220;16.358;2023-06-10T08:21:34;16.73;;;15.03;;
79261;SDS011;68699;48.220;16.358;2023-06-10T08:24:02;17.73;;;16.00;;
79261;SDS011;68699;48.220;16.358;2023-06-10T08:26:28;17.97;;;16.37;;
79261;SDS011;68699;48.220;16.358;2023-06-10T08:28:54;18.20;;;16.27;;
79261;SDS011;68699;48.220;16.358;2023-06-10T08:31:20;18.10;;;16.40;;
79261;SDS011;68699;48.220;16.358;2023-06-10T08:33:46;18.50;;;16.80;;
79261;SDS011;68699;48.220;16.358;2023-06-10T08:36:13;20.23;;;18.23;;
79261;SDS011;68699;48.220;16.358;2023-06-10T08:38:39;18.43;;;16.63;;
79261;SDS011;68699;48.220;16.358;2023-06-10T08:41:05;17.87;;;16.17;;
79261;SDS011;68699;48.220;16.358;2023-06-10T08:43:34;18.93;;;17.23;;
79261;SDS011;68699;48.220;16.358;2023-06-10T08:46:02;18.37;;;16.57;;
79261;SDS011;68699;48.220;16.358;2023-06-10T08:48:31;18.73;;;17.03;;
79261;SDS011;68699;48.220;16.358;2023-06-10T08:51:00;17.97;;;16.17;;
79261;SDS011;68699;48.220;16.358;2023-06-10T08:53:30;19.13;;;17.33;;
79261;SDS011;68699;48.220;16.358;2023-06-10T08:55:58;17.47;;;15.80;;
79261;SDS011;68699;48.220;16.358;2023-06-10T08:58:26;17.53;;;16.03;;
79261;SDS011;68699;48.220;16.358;2023-06-10T09:00:53;18.20;;;16.40;;
79261;SDS011;68699;48.220;16.358;2023-06-10T09:03:19;16.37;;;14.97;;
79261;SDS011;68699;48.220;16.358;2023-06-10T09:05:45;16.87;;;15.40;;
79261;SDS011;68699;48.220;16.358;2023-06-10T09:08:11;17.33;;;15.73;;
79261;SDS011;68699;48.220;16.358;2023-06-10T09:10:38;18.13;;;16.53;;
79261;SDS011;68699;48.220;16.358;2023-06-10T09:13:04;17.70;;;16.10;;
79261;SDS011;68699;48.220;16.358;2023-06-10T09:15:31;17.20;;;15.67;;
79261;SDS011;68699;48.220;16.358;2023-06-10T09:17:57;16.53;;;15.03;;
79261;SDS011;68699;48.220;16.358;2023-06-10T09:20:24;17.30;;;15.70;;
79261;SDS011;68699;48.220;16.358;2023-06-10T09:22:51;17.43;;;15.83;;
79261;SDS011;68699;48.220;16.358;2023-06-10T09:25:17;15.20;;;13.90;;
79261;SDS011;68699;48.220;16.358;2023-06-10T09:27:47;16.03;;;14.60;;
79261;SDS011;68699;48.220;16.358;2023-06-10T09:30:28;15.77;;;14.37;;
79261;SDS011;68699;48.220;16.358;2023-06-10T09:32:55;16.33;;;14.83;;
79261;SDS011;68699;48.220;16.358;2023-06-10T09:35:25;16.33;;;14.83;;
79261;SDS011;68699;48.220;16.358;2023-06-10T09:37:56;15.43;;;14.03;;
79261;SDS011;68699;48.220;16.358;2023-06-10T09:40:23;14.87;;;13.37;;
79261;SDS011;68699;48.220;16.358;2023-06-10T09:42:55;15.00;;;13.60;;
79261;SDS011;68699;48.220;16.358;2023-06-10T09:45:22;14.10;;;12.90;;
79261;SDS011;68699;48.220;16.358;2023-06-10T09:47:52;15.43;;;14.07;;
79261;SDS011;68699;48.220;16.358;2023-06-10T09:50:19;15.40;;;14.00;;
79261;SDS011;68699;48.220;16.358;2023-06-10T09:52:46;14.13;;;12.93;;
79261;SDS011;68699;48.220;16.358;2023-06-10T09:55:15;15.03;;;13.73;;
79261;SDS011;68699;48.220;16.358;2023-06-10T09:57:41;13.63;;;12.43;;
79261;SDS011;68699;48.220;16.358;2023-06-10T10:00:09;14.27;;;13.07;;
79261;SDS011;68699;48.220;16.358;2023-06-10T10:02:49;13.77;;;12.53;;
79261;SDS011;68699;48.220;16.358;2023-06-10T10:05:16;14.37;;;13.07;;
79261;SDS011;68699;48.220;16.358;2023-06-10T10:07:43;14.17;;;12.73;;
79261;SDS011;68699;48.220;16.358;2023-06-10T10:10:09;13.77;;;12.57;;
79261;SDS011;68699;48.220;16.358;2023-06-10T10:12:38;12.97;;;11.97;;
79261;SDS011;68699;48.220;16.358;2023-06-10T10:15:06;12.87;;;11.77;;
79261;SDS011;68699;48.220;16.358;2023-06-10T10:18:19;13.53;;;12.23;;
79261;SDS011;68699;48.220;16.358;2023-06-10T10:20:22;14.00;;;12.90;;
79261;SDS011;68699;48.220;16.358;2023-06-10T10:22:50;13.30;;;12.10;;
79261;SDS011;68699;48.220;16.358;2023-06-10T10:25:28;12.73;;;11.73;;
79261;SDS011;68699;48.220;16.358;2023-06-10T10:28:01;13.07;;;11.97;;
79261;SDS011;68699;48.220;16.358;2023-06-10T10:30:28;11.97;;;11.07;;
79261;SDS011;68699;48.220;16.358;2023-06-10T10:33:05;12.70;;;11.67;;
79261;SDS011;68699;48.220;16.358;2023-06-10T10:35:33;12.67;;;11.67;;
79261;SDS011;68699;48.220;16.358;2023-06-10T10:38:00;12.23;;;11.23;;
79261;SDS011;68699;48.220;16.358;2023-06-10T10:40:27;12.27;;;11.17;;
79261;SDS011;68699;48.220;16.358;2023-06-10T10:42:55;11.90;;;10.80;;
79261;SDS011;68699;48.220;16.358;2023-06-10T10:45:22;12.43;;;11.33;;
79261;SDS011;68699;48.220;16.358;2023-06-10T10:47:51;12.10;;;11.03;;
79261;SDS011;68699;48.220;16.358;2023-06-10T10:50:18;11.93;;;10.93;;
79261;SDS011;68699;48.220;16.358;2023-06-10T10:52:52;12.10;;;11.07;;
79261;SDS011;68699;48.220;16.358;2023-06-10T10:55:22;12.97;;;11.77;;
79261;SDS011;68699;48.220;16.358;2023-06-10T10:58:11;12.07;;;11.17;;
79261;SDS011;68699;48.220;16.358;2023-06-10T11:00:37;11.67;;;10.67;;
79261;SDS011;68699;48.220;16.358;2023-06-10T11:05:31;11.47;;;10.53;;
79261;SDS011;68699;48.220;16.358;2023-06-10T11:07:57;11.10;;;10.20;;
79261;SDS011;68699;48.220;16.358;2023-06-10T11:10:30;12.03;;;10.90;;
79261;SDS011;68699;48.220;16.358;2023-06-10T11:12:57;11.73;;;10.53;;
79261;SDS011;68699;48.220;16.358;2023-06-10T11:15:25;11.13;;;10.33;;
79261;SDS011;68699;48.220;16.358;2023-06-10T11:28:41;11.67;;;10.67;;
79261;SDS011;68699;48.220;16.358;2023-06-10T11:31:09;11.13;;;10.23;;
79261;SDS011;68699;48.220;16.358;2023-06-10T11:33:37;11.67;;;10.77;;
79261;SDS011;68699;48.220;16.358;2023-06-10T11:36:07;10.97;;;10.07;;
79261;SDS011;68699;48.220;16.358;2023-06-10T11:38:34;10.63;;;9.73;;
79261;SDS011;68699;48.220;16.358;2023-06-10T11:41:01;10.80;;;9.90;;
79261;SDS011;68699;48.220;16.358;2023-06-10T11:43:27;10.20;;;9.40;;
79261;SDS011;68699;48.220;16.358;2023-06-10T11:45:54;10.40;;;9.60;;
79261;SDS011;68699;48.220;16.358;2023-06-10T11:48:21;11.37;;;10.37;;
79261;SDS011;68699;48.220;16.358;2023-06-10T11:50:47;11.33;;;10.33;;
79261;SDS011;68699;48.220;16.358;2023-06-10T11:53:13;11.47;;;10.47;;
79261;SDS011;68699;48.220;16.358;2023-06-10T11:55:47;11.70;;;10.67;;
79261;SDS011;68699;48.220;16.358;2023-06-10T11:58:18;10.93;;;10.13;;
79261;SDS011;68699;48.220;16.358;2023-06-10T12:00:48;11.87;;;10.87;;
79261;SDS011;68699;48.220;16.358;2023-06-10T12:03:15;11.23;;;10.30;;
79261;SDS011;68699;48.220;16.358;2023-06-10T12:08:24;10.90;;;9.90;;
79261;SDS011;68699;48.220;16.358;2023-06-10T12:10:51;10.80;;;10.00;;
79261;SDS011;68699;48.220;16.358;2023-06-10T12:13:17;10.77;;;9.87;;
79261;SDS011;68699;48.220;16.358;2023-06-10T12:15:44;9.60;;;8.90;;
79261;SDS011;68699;48.220;16.358;2023-06-10T12:18:43;10.60;;;9.73;;
79261;SDS011;68699;48.220;16.358;2023-06-10T12:21:02;9.77;;;8.93;;
79261;SDS011;68699;48.220;16.358;2023-06-10T12:23:29;9.53;;;8.83;;
79261;SDS011;68699;48.220;16.358;2023-06-10T12:25:55;9.77;;;9.07;;
79261;SDS011;68699;48.220;16.358;2023-06-10T12:28:22;9.43;;;8.70;;
79261;SDS011;68699;48.220;16.358;2023-06-10T12:30:48;8.90;;;8.30;;
79261;SDS011;68699;48.220;16.358;2023-06-10T12:33:21;10.13;;;9.27;;
79261;SDS011;68699;48.220;16.358;2023-06-10T12:35:51;12.05;;;8.65;;
79261;SDS011;68699;48.220;16.358;2023-06-10T12:38:23;8.90;;;8.10;;
79261;SDS011;68699;48.220;16.358;2023-06-10T12:40:52;9.30;;;8.53;;
79261;SDS011;68699;48.220;16.358;2023-06-10T12:43:24;10.37;;;9.47;;
79261;SDS011;68699;48.220;16.358;2023-06-10T12:45:51;13.43;;;10.97;;
79261;SDS011;68699;48.220;16.358;2023-06-10T12:48:20;11.83;;;10.83;;
79261;SDS011;68699;48.220;16.358;2023-06-10T12:50:50;12.37;;;11.37;;
79261;SDS011;68699;48.220;16.358;2023-06-10T12:53:17;12.57;;;11.37;;
79261;SDS011;68699;48.220;16.358;2023-06-10T12:55:44;14.23;;;12.93;;
79261;SDS011;68699;48.220;16.358;2023-06-10T12:58:11;12.80;;;11.70;;
79261;SDS011;68699;48.220;16.358;2023-06-10T13:00:37;13.43;;;12.13;;
79261;SDS011;68699;48.220;16.358;2023-06-10T13:03:04;12.10;;;11.10;;
79261;SDS011;68699;48.220;16.358;2023-06-10T13:05:34;11.87;;;10.90;;
79261;SDS011;68699;48.220;16.358;2023-06-10T13:08:02;11.80;;;10.80;;
79261;SDS011;68699;48.220;16.358;2023-06-10T13:10:29;11.53;;;10.53;;
79261;SDS011;68699;48.220;16.358;2023-06-10T13:12:55;10.97;;;10.07;;
79261;SDS011;68699;48.220;16.358;2023-06-10T13:15:22;10.87;;;10.07;;
79261;SDS011;68699;48.220;16.358;2023-06-10T13:17:48;11.03;;;10.13;;
79261;SDS011;68699;48.220;16.358;2023-06-10T13:20:15;11.47;;;10.57;;
79261;SDS011;68699;48.220;16.358;2023-06-10T13:22:42;11.50;;;10.30;;
79261;SDS011;68699;48.220;16.358;2023-06-10T13:25:08;11.33;;;10.33;;
79261;SDS011;68699;48.220;16.358;2023-06-10T13:27:37;10.60;;;9.80;;
79261;SDS011;68699;48.220;16.358;2023-06-10T13:30:06;10.43;;;9.63;;
79261;SDS011;68699;48.220;16.358;2023-06-10T13:32:33;10.40;;;9.60;;
79261;SDS011;68699;48.220;16.358;2023-06-10T13:34:59;11.37;;;10.40;;
79261;SDS011;68699;48.220;16.358;2023-06-10T13:37:26;10.93;;;10.03;;
79261;SDS011;68699;48.220;16.358;2023-06-10T13:39:52;11.27;;;10.37;;
79261;SDS011;68699;48.220;16.358;2023-06-10T13:42:19;12.17;;;11.17;;
79261;SDS011;68699;48.220;16.358;2023-06-10T13:44:46;11.33;;;10.33;;
79261;SDS011;68699;48.220;16.358;2023-06-10T13:47:13;11.73;;;10.80;;
79261;SDS011;68699;48.220;16.358;2023-06-10T13:49:39;11.57;;;10.67;;
79261;SDS011;68699;48.220;16.358;2023-06-10T13:52:06;11.60;;;10.60;;
79261;SDS011;68699;48.220;16.358;2023-06-10T13:54:32;11.00;;;10.10;;
79261;SDS011;68699;48.220;16.358;2023-06-10T13:57:01;10.40;;;9.60;;
79261;SDS011;68699;48.220;16.358;2023-06-10T13:59:27;10.23;;;9.33;;
79261;SDS011;68699;48.220;16.358;2023-06-10T14:01:53;11.27;;;10.27;;
79261;SDS011;68699;48.220;16.358;2023-06-10T14:04:19;11.53;;;10.63;;
79261;SDS011;68699;48.220;16.358;2023-06-10T14:06:46;10.33;;;9.43;;
79261;SDS011;68699;48.220;16.358;2023-06-10T14:09:13;10.43;;;9.63;;
79261;SDS011;68699;48.220;16.358;2023-06-10T14:11:39;12.00;;;11.00;;
79261;SDS011;68699;48.220;16.358;2023-06-10T14:14:06;11.77;;;10.77;;
79261;SDS011;68699;48.220;16.358;2023-06-10T14:16:32;12.00;;;10.90;;
79261;SDS011;68699;48.220;16.358;2023-06-10T14:18:58;12.17;;;11.10;;
79261;SDS011;68699;48.220;16.358;2023-06-10T14:21:25;11.50;;;10.67;;
79261;SDS011;68699;48.220;16.358;2023-06-10T14:23:51;11.60;;;10.60;;
79261;SDS011;68699;48.220;16.358;2023-06-10T14:26:18;11.63;;;10.60;;
79261;SDS011;68699;48.220;16.358;2023-06-10T14:28:46;11.47;;;10.57;;
79261;SDS011;68699;48.220;16.358;2023-06-10T14:31:12;12.10;;;11.10;;
79261;SDS011;68699;48.220;16.358;2023-06-10T14:33:39;11.30;;;10.40;;
79261;SDS011;68699;48.220;16.358;2023-06-10T14:36:07;11.40;;;10.50;;
79261;SDS011;68699;48.220;16.358;2023-06-10T14:38:33;11.60;;;10.60;;
79261;SDS011;68699;48.220;16.358;2023-06-10T14:41:00;10.93;;;10.00;;